Terminal Aerodrome Forecast
Issued by NWS

Home | Current Version | Previous Version | Text Only | Print | Product List | Glossary On
Versions: 1 2 3 4 5 6 7 8 9 10 11 12 13 14 15 16 17 18 19 20 21 22 23 24 25 26 27 28 29 30 31 32 33 34
008
FTUS43 KDVN 060411 AAB
TAFBRL
TAF AMD
KBRL 060411Z 0604/0624 13010KT P6SM OVC007
     FM060600 14009KT 4SM BR OVC004
     FM060800 14006KT 1/4SM FG OVC001
     FM061200 26007KT 1SM BR OVC004
     FM061600 29012G20KT 6SM BR BKN050=

USA.gov is the U.S. government's official web portal to all federal, state and local government web resources and services.